Nearby METAR Reports

 

KIAG - Niagara Falls, New York, USA
Distance from station: W 12mi, 20km
Updated: 08/04/2020 5:53pm
Partly cloudy
Partly cloudy
 Wind from W
Wind: W 7 mph , 11 km/h
Temperature: 75°F , 24°C
Dew Point: 64°F , 18°C
Humidity: 69%
Barometer: 1008.8 hPa
Clouds: Partly cloudy
Visibility: 10 miles , 16 km
Cloud details: Few Clouds 7000 ft
Few Clouds 9000 ft
Partly cloudy 11000 ft
2020/08/04 21:53 KIAG 042153Z 27006KT 10SM FEW070 FEW090 SCT110 24/18 A2979 RMK AO2 SLP085 T02390178
KBUF - Buffalo/Cheektow, New York, USA
Distance from station: S 13mi, 21km
Updated: 08/04/2020 5:54pm
Light rain, Mostly cloudy
Light rain, Mostly cloudy
 Wind from W
Wind: W 13 mph , 20 km/h
Temperature: 73°F , 23°C
Dew Point: 66°F , 19°C
Humidity: 78%
Barometer: 1009.5 hPa
Summary: Light rain
Clouds: Mostly cloudy
Visibility: 9 miles , 14 km
Cloud details: Mostly cloudy 3200 ft
Mostly cloudy 5000 ft
Mostly cloudy 11000 ft
2020/08/04 21:54 KBUF 042154Z 26011KT 9SM -RA BKN032 BKN050 BKN110 23/19 A2981 RMK AO2 RAB47 SLP090 CB DSNT SE MOV E P0000 T02330189
 
KROC - Rochester, New York, USA
Distance from station: E 51mi, 82km
Updated: 08/04/2020 5:54pm
Mostly cloudy
Mostly cloudy
 Wind from NNW
Wind: NNW 7 mph , 11 km/h
Temperature: 72°F , 22°C
Dew Point: 70°F , 21°C
Humidity: 94%
Barometer: 1008.8 hPa
Clouds: Mostly cloudy
Visibility: 10 miles , 16 km
Cloud details: Few Clouds 1200 ft
Mostly cloudy 3000 ft
Mostly cloudy 6000 ft
2020/08/04 21:54 KROC 042154Z 34006KT 10SM FEW012 BKN030 BKN060 22/21 A2979 RMK AO2 RAE46 SLP087 P0001 T02220206
CYSN - St. Catharines A, Ontario, Canada
Distance from station: WNW 25mi, 40km
Updated: 08/04/2020 6:00pm
Mostly cloudy
Mostly cloudy
 Wind from SW
Wind: SW 7 mph , 11 km/h
Temperature: 73°F , 23°C
Dew Point: 68°F , 20°C
Humidity: 83%
Barometer: 1008.8 hPa
Clouds: Mostly cloudy
Visibility: 15 miles , 24 km
Cloud details: Few Clouds 1800 ft
Mostly cloudy 11000 ft
2020/08/04 22:00 CYSN 042200Z 22006KT 15SM FEW018 BKN110 23/20 A2979 RMK CU2AC4 CVCTV CLD TOPS N AND S SLP087 DENSITY ALT 1500FT
 
KOLE - Olean, New York, USA
Distance from station: SSE 63mi, 102km
Updated: 08/04/2020 6:35pm
Clear
Clear
 Wind from WNW
Wind: WNW 7 mph , 11 km/h, Gust: 16 mph , 26 km/h
Temperature: 68°F , 20°C
Dew Point: 59°F , 15°C
Humidity: 73%
Barometer: 1012.2 hPa
Clouds: Clear
Visibility: 10 miles , 16 km
2020/08/04 22:35 KOLE 042235Z AUTO 30006G14KT 10SM CLR 20/15 A2989 RMK AO2
KJHW - Jamestown, New York, USA
Distance from station: SSW 74mi, 119km
Updated: 08/04/2020 5:56pm
Mostly cloudy
Mostly cloudy
 Wind from W
Wind: W 13 mph , 20 km/h
Temperature: 72°F , 22°C
Dew Point: 63°F , 17°C
Humidity: 73%
Barometer: 1012.2 hPa
Clouds: Mostly cloudy
Visibility: 10 miles , 16 km
Cloud details: Partly cloudy 2300 ft
Mostly cloudy 2900 ft
2020/08/04 21:56 KJHW 042156Z AUTO 28011KT 10SM SCT023 BKN029 22/17 A2989 RMK AO2 SLP118 T02170172
 
CWWZ - Port Weller (mar, Ontario, Canada
Distance from station: WNW 28mi, 45km
Updated: 08/04/2020 6:00pm

 Wind from SW
Wind: SW 1 mph , 2 km/h
Temperature: 72°F , 22°C
Dew Point: 70°F , 21°C
Humidity: 94%
2020/08/04 22:00 CWWZ 042200Z AUTO 22001KT 22/21 RMK AO1 SLP089 T02220214 56008
CWPC - Port Colborne(Au, Ontario, Canada
Distance from station: WSW 33mi, 53km
Updated: 08/04/2020 6:00pm

 Wind from W
Wind: W 22 mph , 35 km/h
Temperature: 73°F , 23°C
Dew Point: 66°F , 19°C
Humidity: 78%
2020/08/04 22:00 CWPC 042200Z AUTO 26019KT 23/19 RMK AO1 PK WND 26022/2155 SLP097 T02300190 53001
 
CXVN - Vineland (au8), Ontario, Canada
Distance from station: W 36mi, 58km
Updated: 08/04/2020 6:00pm

 Wind from ESE
Wind: ESE 3 mph , 6 km/h
Temperature: 75°F , 24°C
Dew Point: 68°F , 20°C
Humidity: 78%
2020/08/04 22:00 CXVN 042200Z AUTO 11003KT 24/20 RMK AO1 6009 SLP085 T02430198 50001
CYTZ - Toronto Il Vor, Ontario, Canada
Distance from station: NW 50mi, 81km
Updated: 08/04/2020 6:34pm
Light thunderstorm, Rain, Mostly cloudy
Light thunderstorm, Rain, Mostly cloudy
 Wind from NNW
Wind: NNW 12 mph , 19 km/h, Gust: 22 mph , 35 km/h
Temperature: 70°F , 21°C
Dew Point: 66°F , 19°C
Humidity: 88%
Barometer: 1009.1 hPa
Summary: Light thunderstorm, Rain
Clouds: Mostly cloudy
Visibility: 9 miles , 14 km
Cloud details: Few Clouds 2500 ft
Partly cloudy 3400 ft
Mostly cloudy 4000 ft
Mostly cloudy 6500 ft
2020/08/04 22:34 CYTZ 042234Z AUTO 33010G19KT 290V360 9SM -TSRA FEW025 SCT034 BKN040 BKN065 21/19 A2980 RMK LTNG DIST SW W SLP092 DENSITY ALT 1000FT
 
CXTO - Toronto City, Ontario, Canada
Distance from station: NW 52mi, 84km
Updated: 08/04/2020 6:00pm

 
Temperature: 73°F , 23°C
Dew Point: 61°F , 16°C
Humidity: 65%
2020/08/04 22:00 CXTO 042200Z AUTO 23/16 RMK AO1 SLP093 T02310164 55006
KDKK - Dunkirk, New York, USA
Distance from station: SW 52mi, 84km
Updated: 08/04/2020 6:43pm
Mostly cloudy
Mostly cloudy
 Wind from WSW
Wind: WSW 12 mph , 19 km/h, Gust: 21 mph , 33 km/h
Temperature: 75°F , 24°C
Dew Point: 64°F , 18°C
Humidity: 69%
Barometer: 1010.5 hPa
Clouds: Mostly cloudy
Visibility: 10 miles , 16 km
Cloud details: Mostly cloudy 1800 ft
Mostly cloudy 2300 ft
2020/08/04 22:43 KDKK 042243Z AUTO 24010G18KT 10SM BKN018 BKN023 24/18 A2984 RMK AO2 T02390183 $
 
CYOO - Oshawa, Ontario, Canada
Distance from station: N 56mi, 90km
Updated: 08/04/2020 6:50pm
Mostly cloudy
Mostly cloudy
 Wind from N
Wind: N 7 mph , 11 km/h
Temperature: 68°F , 20°C
Dew Point: 66°F , 19°C
Humidity: 94%
Barometer: 1008.8 hPa
Clouds: Mostly cloudy
Visibility: 9 miles , 14 km
Cloud details: Few Clouds 3600 ft
Mostly cloudy 8500 ft
2020/08/04 22:50 CYOO 042250Z AUTO 35006KT 9SM FEW036 BKN085 20/19 A2979 RMK LTNG DIST SW W SLP089 DENSITY ALT 1200FT
CWWB - Burlington Piers, Ontario, Canada
Distance from station: WNW 56mi, 91km
Updated: 08/04/2020 6:00pm

 Wind from S
Wind: S 8 mph , 13 km/h
Temperature: 73°F , 23°C
Dew Point: 64°F , 18°C
Humidity: 74%
2020/08/04 22:00 CWWB 042200Z AUTO 19007KT 23/18 RMK AO1 SLP091 T02250178 55003
 
CYYZ - Toronto/Pearson, Ontario, Canada
Distance from station: NW 60mi, 96km
Updated: 08/04/2020 6:32pm
Light thunderstorm, Rain, Mostly cloudy
Light thunderstorm, Rain, Mostly cloudy
 Wind from NE
Wind: NE 9 mph , 15 km/h
Temperature: 66°F , 19°C
Dew Point: 64°F , 18°C
Humidity: 94%
Barometer: 1009.1 hPa
Summary: Light thunderstorm, Rain
Clouds: Mostly cloudy
Visibility: 10 miles , 16 km
Cloud details: Partly cloudy 2500 ft
Mostly cloudy 5300 ft
Mostly cloudy 9000 ft
2020/08/04 22:32 CYYZ 042232Z 04008KT 10SM -TSRA SCT025CB BKN053 BKN090 19/18 A2980 RMK CB3SC3AC1 CB SE-SW PRESFR SLP093 DENSITY ALT 1400FT
CYKZ - Toronto Buttonvi, Ontario, Canada
Distance from station: NW 62mi, 99km
Updated: 01/03/2019 4:00am
NOT Current
Partly cloudy
Partly cloudy
 Wind from WSW
Wind: WSW 5 mph , 7 km/h
Temperature: 27°F , -3°C
Wind Chill: 21°F , -6°C
Dew Point: 23°F , -5°C
Humidity: 86%
Barometer: 1010.8 hPa
Clouds: Partly cloudy
Visibility: 15 miles , 24 km
Cloud details: Partly cloudy 4000 ft
2019/01/03 09:00 CYKZ 030900Z 25004KT 15SM SCT040 M03/M05 A2985 RMK SC3 LAST STFD OBS FAREWELL SLP118
 
CXHM - Hamilton Rbg Cs, Ontario, Canada
Distance from station: W 62mi, 100km
Updated: 08/04/2020 6:00pm

 Wind from WSW
Wind: WSW 5 mph , 7 km/h
Temperature: 70°F , 21°C
Dew Point: 64°F , 18°C
Humidity: 83%
2020/08/04 22:00 CXHM 042200Z AUTO 25004KT 21/18 RMK AO1 5PAST HR 5001 SLP090 P0002 T02130178 50005
KDSV - Dansville, New York, USA
Distance from station: SE 62mi, 100km
Updated: 08/04/2020 6:39pm
Mostly cloudy
Mostly cloudy
 Wind from NW
Wind: NW 8 mph , 13 km/h
Temperature: 73°F , 23°C
Dew Point: 68°F , 20°C
Humidity: 83%
Barometer: 1009.8 hPa
Clouds: Mostly cloudy
Visibility: 10 miles , 16 km
Cloud details: Partly cloudy 1700 ft
Partly cloudy 5000 ft
Mostly cloudy 6500 ft
2020/08/04 22:39 KDSV 042239Z AUTO 32007KT 10SM SCT017 SCT050 BKN065 23/20 A2982 RMK AO2 T02280200
 
CYHM - Hamilton Airport, Ontario, Canada
Distance from station: W 63mi, 101km
Updated: 08/04/2020 6:48pm
Heavy thunderstorm, Rain, Overcast
Heavy thunderstorm, Rain, Overcast
 Wind from WSW
Wind: WSW 16 mph , 26 km/h, Gust: 23 mph , 37 km/h
Temperature: 64°F , 18°C
Dew Point: 64°F , 18°C
Humidity: 100%
Barometer: 1010.5 hPa
Summary: Heavy thunderstorm, Rain
Clouds: Overcast
Visibility: 1 mile , 2 km
Cloud details: Few Clouds 2400 ft
Partly cloudy 3400 ft
Overcast 10000 ft
2020/08/04 22:48 CYHM 042248Z 25014G20KT 1SM R12/6000FT/D +TSRA FEW024CB SCT034 OVC100 18/18 A2984 RMK CB3SC4AC1 PRESRR SLP105 DENSITY ALT 1500FT
CWNC - Cobourg (mars), Ontario, Canada
Distance from station: NNE 63mi, 102km
Updated: 08/04/2020 6:00pm

 Wind from N
Wind: N 2 mph , 4 km/h
Temperature: 75°F , 24°C
Dew Point: 68°F , 20°C
Humidity: 78%
2020/08/04 22:00 CWNC 042200Z AUTO 36002KT 24/20 RMK AO1 SLP078 T02410201 56011